sensor_id;sensor_type;location;lat;lon;timestamp;P1;durP1;ratioP1;P2;durP2;ratioP2
34836;SDS011;21053;50.848;4.652;2023-05-02T00:01:09;40.28;;;17.25;;
34836;SDS011;21053;50.848;4.652;2023-05-02T00:03:37;40.67;;;16.35;;
34836;SDS011;21053;50.848;4.652;2023-05-02T00:06:03;33.42;;;16.02;;
34836;SDS011;21053;50.848;4.652;2023-05-02T00:11:01;38.67;;;16.75;;
34836;SDS011;21053;50.848;4.652;2023-05-02T00:15:58;43.40;;;17.88;;
34836;SDS011;21053;50.848;4.652;2023-05-02T00:18:27;37.80;;;17.20;;
34836;SDS011;21053;50.848;4.652;2023-05-02T00:20:56;46.65;;;17.60;;
34836;SDS011;21053;50.848;4.652;2023-05-02T00:25:54;42.03;;;17.92;;
34836;SDS011;21053;50.848;4.652;2023-05-02T00:28:20;41.53;;;16.52;;
34836;SDS011;21053;50.848;4.652;2023-05-02T00:30:47;36.28;;;16.67;;
34836;SDS011;21053;50.848;4.652;2023-05-02T00:33:14;40.33;;;17.60;;
34836;SDS011;21053;50.848;4.652;2023-05-02T00:35:43;43.33;;;17.23;;
34836;SDS011;21053;50.848;4.652;2023-05-02T00:38:12;34.58;;;16.48;;
34836;SDS011;21053;50.848;4.652;2023-05-02T00:40:47;35.42;;;15.63;;
34836;SDS011;21053;50.848;4.652;2023-05-02T00:43:15;36.45;;;16.55;;
34836;SDS011;21053;50.848;4.652;2023-05-02T00:45:44;46.25;;;19.08;;
34836;SDS011;21053;50.848;4.652;2023-05-02T00:48:13;47.83;;;19.67;;
34836;SDS011;21053;50.848;4.652;2023-05-02T00:50:40;49.05;;;19.83;;
34836;SDS011;21053;50.848;4.652;2023-05-02T00:53:10;70.82;;;26.85;;
34836;SDS011;21053;50.848;4.652;2023-05-02T00:55:39;59.40;;;24.00;;
34836;SDS011;21053;50.848;4.652;2023-05-02T00:58:06;60.20;;;23.83;;
34836;SDS011;21053;50.848;4.652;2023-05-02T01:03:24;80.55;;;30.00;;
34836;SDS011;21053;50.848;4.652;2023-05-02T01:12:03;85.82;;;32.33;;
34836;SDS011;21053;50.848;4.652;2023-05-02T01:14:41;85.05;;;32.65;;
34836;SDS011;21053;50.848;4.652;2023-05-02T01:17:13;87.15;;;32.45;;
34836;SDS011;21053;50.848;4.652;2023-05-02T01:19:53;84.05;;;31.80;;
34836;SDS011;21053;50.848;4.652;2023-05-02T01:22:23;82.72;;;33.75;;
34836;SDS011;21053;50.848;4.652;2023-05-02T01:30:16;82.00;;;30.95;;
34836;SDS011;21053;50.848;4.652;2023-05-02T01:32:47;80.78;;;32.88;;
34836;SDS011;21053;50.848;4.652;2023-05-02T01:35:21;81.22;;;31.80;;
34836;SDS011;21053;50.848;4.652;2023-05-02T01:40:20;77.97;;;30.05;;
34836;SDS011;21053;50.848;4.652;2023-05-02T01:45:20;81.50;;;30.88;;
34836;SDS011;21053;50.848;4.652;2023-05-02T01:47:52;84.72;;;30.73;;
34836;SDS011;21053;50.848;4.652;2023-05-02T01:50:22;81.57;;;33.05;;
34836;SDS011;21053;50.848;4.652;2023-05-02T01:52:50;80.88;;;31.23;;
34836;SDS011;21053;50.848;4.652;2023-05-02T01:55:19;80.28;;;29.80;;
34836;SDS011;21053;50.848;4.652;2023-05-02T01:57:47;74.30;;;30.38;;
34836;SDS011;21053;50.848;4.652;2023-05-02T02:02:45;82.35;;;31.25;;
34836;SDS011;21053;50.848;4.652;2023-05-02T02:05:13;78.78;;;30.38;;
34836;SDS011;21053;50.848;4.652;2023-05-02T02:07:42;76.75;;;29.88;;
34836;SDS011;21053;50.848;4.652;2023-05-02T02:10:09;72.60;;;29.35;;
34836;SDS011;21053;50.848;4.652;2023-05-02T02:12:42;78.20;;;29.60;;
34836;SDS011;21053;50.848;4.652;2023-05-02T02:17:47;62.13;;;27.15;;
34836;SDS011;21053;50.848;4.652;2023-05-02T02:20:21;66.82;;;28.45;;
34836;SDS011;21053;50.848;4.652;2023-05-02T02:22:47;73.53;;;27.92;;
34836;SDS011;21053;50.848;4.652;2023-05-02T02:25:15;69.18;;;28.23;;
34836;SDS011;21053;50.848;4.652;2023-05-02T02:27:46;69.53;;;28.67;;
34836;SDS011;21053;50.848;4.652;2023-05-02T02:32:44;69.80;;;28.48;;
34836;SDS011;21053;50.848;4.652;2023-05-02T02:38:04;75.57;;;30.02;;
34836;SDS011;21053;50.848;4.652;2023-05-02T02:40:53;75.57;;;28.58;;
34836;SDS011;21053;50.848;4.652;2023-05-02T02:49:33;71.63;;;30.30;;
34836;SDS011;21053;50.848;4.652;2023-05-02T02:54:55;84.20;;;32.88;;
34836;SDS011;21053;50.848;4.652;2023-05-02T02:57:52;92.78;;;34.28;;
34836;SDS011;21053;50.848;4.652;2023-05-02T03:02:55;93.15;;;35.90;;
34836;SDS011;21053;50.848;4.652;2023-05-02T03:07:51;91.22;;;35.42;;
34836;SDS011;21053;50.848;4.652;2023-05-02T03:12:51;84.88;;;33.13;;
34836;SDS011;21053;50.848;4.652;2023-05-02T03:18:03;91.65;;;35.38;;
34836;SDS011;21053;50.848;4.652;2023-05-02T03:20:32;81.68;;;33.63;;
34836;SDS011;21053;50.848;4.652;2023-05-02T03:22:57;88.47;;;34.95;;
34836;SDS011;21053;50.848;4.652;2023-05-02T03:25:23;96.15;;;36.50;;
34836;SDS011;21053;50.848;4.652;2023-05-02T03:27:51;85.50;;;35.13;;
34836;SDS011;21053;50.848;4.652;2023-05-02T03:30:24;88.32;;;36.80;;
34836;SDS011;21053;50.848;4.652;2023-05-02T03:32:52;90.78;;;35.35;;
34836;SDS011;21053;50.848;4.652;2023-05-02T03:37:50;90.50;;;35.70;;
34836;SDS011;21053;50.848;4.652;2023-05-02T03:40:22;89.57;;;35.42;;
34836;SDS011;21053;50.848;4.652;2023-05-02T03:42:49;91.30;;;35.08;;
34836;SDS011;21053;50.848;4.652;2023-05-02T03:45:18;95.32;;;37.35;;
34836;SDS011;21053;50.848;4.652;2023-05-02T03:47:45;101.03;;;36.92;;
34836;SDS011;21053;50.848;4.652;2023-05-02T03:50:13;88.35;;;34.88;;
34836;SDS011;21053;50.848;4.652;2023-05-02T03:57:39;82.10;;;33.15;;
34836;SDS011;21053;50.848;4.652;2023-05-02T04:00:05;88.40;;;36.40;;
34836;SDS011;21053;50.848;4.652;2023-05-02T04:02:34;90.28;;;34.40;;
34836;SDS011;21053;50.848;4.652;2023-05-02T04:05:01;76.10;;;32.25;;
34836;SDS011;21053;50.848;4.652;2023-05-02T04:07:27;79.07;;;31.05;;
34836;SDS011;21053;50.848;4.652;2023-05-02T04:09:55;78.45;;;31.58;;
34836;SDS011;21053;50.848;4.652;2023-05-02T04:12:22;90.05;;;34.47;;
34836;SDS011;21053;50.848;4.652;2023-05-02T04:14:49;86.57;;;34.42;;
34836;SDS011;21053;50.848;4.652;2023-05-02T04:19:45;81.95;;;33.53;;
34836;SDS011;21053;50.848;4.652;2023-05-02T04:24:40;82.60;;;32.00;;
34836;SDS011;21053;50.848;4.652;2023-05-02T04:27:05;91.25;;;35.13;;
34836;SDS011;21053;50.848;4.652;2023-05-02T04:29:31;75.15;;;31.80;;
34836;SDS011;21053;50.848;4.652;2023-05-02T04:31:58;80.07;;;31.50;;
34836;SDS011;21053;50.848;4.652;2023-05-02T04:34:25;80.20;;;33.83;;
34836;SDS011;21053;50.848;4.652;2023-05-02T04:36:52;76.45;;;32.42;;
34836;SDS011;21053;50.848;4.652;2023-05-02T04:41:50;90.93;;;35.35;;
34836;SDS011;21053;50.848;4.652;2023-05-02T04:44:18;73.25;;;31.38;;
34836;SDS011;21053;50.848;4.652;2023-05-02T04:46:46;78.40;;;31.20;;
34836;SDS011;21053;50.848;4.652;2023-05-02T04:51:41;74.25;;;31.67;;
34836;SDS011;21053;50.848;4.652;2023-05-02T04:54:09;74.03;;;32.03;;
34836;SDS011;21053;50.848;4.652;2023-05-02T04:56:39;74.60;;;30.20;;
34836;SDS011;21053;50.848;4.652;2023-05-02T04:59:11;74.32;;;31.55;;
34836;SDS011;21053;50.848;4.652;2023-05-02T05:04:11;76.05;;;32.20;;
34836;SDS011;21053;50.848;4.652;2023-05-02T05:09:07;76.68;;;31.88;;
34836;SDS011;21053;50.848;4.652;2023-05-02T05:11:36;78.57;;;30.40;;
34836;SDS011;21053;50.848;4.652;2023-05-02T05:14:06;72.40;;;30.48;;
34836;SDS011;21053;50.848;4.652;2023-05-02T05:16:33;77.80;;;31.73;;
34836;SDS011;21053;50.848;4.652;2023-05-02T05:19:00;75.45;;;30.83;;
34836;SDS011;21053;50.848;4.652;2023-05-02T05:21:25;69.68;;;29.25;;
34836;SDS011;21053;50.848;4.652;2023-05-02T05:26:21;74.53;;;30.83;;
34836;SDS011;21053;50.848;4.652;2023-05-02T05:28:48;63.85;;;27.50;;
34836;SDS011;21053;50.848;4.652;2023-05-02T05:31:14;67.30;;;26.83;;
34836;SDS011;21053;50.848;4.652;2023-05-02T05:33:44;59.72;;;26.77;;
34836;SDS011;21053;50.848;4.652;2023-05-02T05:36:12;56.25;;;25.67;;
34836;SDS011;21053;50.848;4.652;2023-05-02T05:41:11;58.97;;;25.88;;
34836;SDS011;21053;50.848;4.652;2023-05-02T05:46:08;65.55;;;26.27;;
34836;SDS011;21053;50.848;4.652;2023-05-02T05:48:34;65.97;;;25.20;;
34836;SDS011;21053;50.848;4.652;2023-05-02T05:51:03;53.63;;;25.10;;
34836;SDS011;21053;50.848;4.652;2023-05-02T05:53:33;54.10;;;26.05;;
34836;SDS011;21053;50.848;4.652;2023-05-02T05:56:11;53.67;;;25.40;;
34836;SDS011;21053;50.848;4.652;2023-05-02T05:58:38;52.65;;;25.98;;
34836;SDS011;21053;50.848;4.652;2023-05-02T06:01:10;54.65;;;25.50;;
34836;SDS011;21053;50.848;4.652;2023-05-02T06:03:37;55.35;;;25.20;;
34836;SDS011;21053;50.848;4.652;2023-05-02T06:06:08;61.10;;;25.30;;
34836;SDS011;21053;50.848;4.652;2023-05-02T06:08:34;54.10;;;24.75;;
34836;SDS011;21053;50.848;4.652;2023-05-02T06:11:00;58.53;;;25.80;;
34836;SDS011;21053;50.848;4.652;2023-05-02T06:13:26;59.50;;;23.67;;
34836;SDS011;21053;50.848;4.652;2023-05-02T06:15:51;52.05;;;22.88;;
34836;SDS011;21053;50.848;4.652;2023-05-02T06:18:18;49.60;;;23.40;;
34836;SDS011;21053;50.848;4.652;2023-05-02T06:20:44;43.63;;;20.15;;
34836;SDS011;21053;50.848;4.652;2023-05-02T06:23:09;45.92;;;20.42;;
34836;SDS011;21053;50.848;4.652;2023-05-02T06:25:38;39.53;;;18.80;;
34836;SDS011;21053;50.848;4.652;2023-05-02T06:28:04;35.25;;;16.45;;
34836;SDS011;21053;50.848;4.652;2023-05-02T06:30:30;38.47;;;15.43;;
34836;SDS011;21053;50.848;4.652;2023-05-02T06:32:56;30.75;;;14.10;;
34836;SDS011;21053;50.848;4.652;2023-05-02T06:35:22;29.38;;;13.43;;
34836;SDS011;21053;50.848;4.652;2023-05-02T06:37:49;26.98;;;11.95;;
34836;SDS011;21053;50.848;4.652;2023-05-02T06:40:15;24.50;;;10.15;;
34836;SDS011;21053;50.848;4.652;2023-05-02T06:42:40;22.73;;;10.60;;
34836;SDS011;21053;50.848;4.652;2023-05-02T06:45:06;23.20;;;11.15;;
34836;SDS011;21053;50.848;4.652;2023-05-02T06:47:33;32.53;;;10.77;;
34836;SDS011;21053;50.848;4.652;2023-05-02T06:50:00;23.85;;;10.75;;
34836;SDS011;21053;50.848;4.652;2023-05-02T06:52:27;23.50;;;10.30;;
34836;SDS011;21053;50.848;4.652;2023-05-02T06:54:52;21.98;;;8.73;;
34836;SDS011;21053;50.848;4.652;2023-05-02T06:57:18;19.45;;;7.90;;
34836;SDS011;21053;50.848;4.652;2023-05-02T06:59:45;22.83;;;8.13;;
34836;SDS011;21053;50.848;4.652;2023-05-02T07:02:13;17.17;;;6.88;;
34836;SDS011;21053;50.848;4.652;2023-05-02T07:04:39;19.60;;;7.22;;
34836;SDS011;21053;50.848;4.652;2023-05-02T07:07:08;17.85;;;6.63;;
34836;SDS011;21053;50.848;4.652;2023-05-02T07:09:34;14.52;;;6.45;;
34836;SDS011;21053;50.848;4.652;2023-05-02T07:12:00;17.58;;;6.45;;
34836;SDS011;21053;50.848;4.652;2023-05-02T07:14:26;17.10;;;6.07;;
34836;SDS011;21053;50.848;4.652;2023-05-02T07:16:52;21.08;;;6.45;;
34836;SDS011;21053;50.848;4.652;2023-05-02T07:19:19;15.68;;;5.55;;
34836;SDS011;21053;50.848;4.652;2023-05-02T07:21:45;13.25;;;4.60;;
34836;SDS011;21053;50.848;4.652;2023-05-02T07:24:11;22.25;;;4.78;;
34836;SDS011;21053;50.848;4.652;2023-05-02T07:26:38;14.23;;;4.88;;
34836;SDS011;21053;50.848;4.652;2023-05-02T07:29:04;14.95;;;4.68;;
34836;SDS011;21053;50.848;4.652;2023-05-02T07:31:30;12.15;;;4.20;;
34836;SDS011;21053;50.848;4.652;2023-05-02T07:33:57;19.35;;;4.53;;
34836;SDS011;21053;50.848;4.652;2023-05-02T07:36:23;12.32;;;3.92;;
34836;SDS011;21053;50.848;4.652;2023-05-02T07:38:48;16.17;;;4.20;;
34836;SDS011;21053;50.848;4.652;2023-05-02T07:41:14;15.65;;;4.18;;
34836;SDS011;21053;50.848;4.652;2023-05-02T07:43:40;12.10;;;4.07;;
34836;SDS011;21053;50.848;4.652;2023-05-02T07:46:06;12.32;;;4.00;;
34836;SDS011;21053;50.848;4.652;2023-05-02T07:48:32;13.18;;;4.80;;
34836;SDS011;21053;50.848;4.652;2023-05-02T07:51:08;20.15;;;5.03;;
34836;SDS011;21053;50.848;4.652;2023-05-02T07:56:02;10.30;;;5.07;;
34836;SDS011;21053;50.848;4.652;2023-05-02T07:58:31;10.73;;;5.43;;
34836;SDS011;21053;50.848;4.652;2023-05-02T08:00:58;13.60;;;4.68;;
34836;SDS011;21053;50.848;4.652;2023-05-02T08:03:26;12.73;;;4.32;;
34836;SDS011;21053;50.848;4.652;2023-05-02T08:05:53;16.55;;;4.18;;
34836;SDS011;21053;50.848;4.652;2023-05-02T08:08:19;10.10;;;3.92;;
34836;SDS011;21053;50.848;4.652;2023-05-02T08:10:44;7.95;;;3.25;;
34836;SDS011;21053;50.848;4.652;2023-05-02T08:13:10;7.60;;;2.55;;
34836;SDS011;21053;50.848;4.652;2023-05-02T08:15:37;10.75;;;2.50;;
34836;SDS011;21053;50.848;4.652;2023-05-02T08:18:04;7.35;;;2.13;;
34836;SDS011;21053;50.848;4.652;2023-05-02T08:20:30;6.10;;;2.05;;
34836;SDS011;21053;50.848;4.652;2023-05-02T08:22:55;6.20;;;2.30;;
34836;SDS011;21053;50.848;4.652;2023-05-02T08:25:21;10.38;;;2.35;;
34836;SDS011;21053;50.848;4.652;2023-05-02T08:27:47;7.82;;;2.42;;
34836;SDS011;21053;50.848;4.652;2023-05-02T08:30:13;10.23;;;2.70;;
34836;SDS011;21053;50.848;4.652;2023-05-02T08:32:38;10.50;;;2.58;;
34836;SDS011;21053;50.848;4.652;2023-05-02T08:35:04;10.27;;;2.63;;
34836;SDS011;21053;50.848;4.652;2023-05-02T08:37:31;11.90;;;2.85;;
34836;SDS011;21053;50.848;4.652;2023-05-02T08:40:03;6.00;;;2.10;;
34836;SDS011;21053;50.848;4.652;2023-05-02T08:42:31;11.15;;;2.28;;
34836;SDS011;21053;50.848;4.652;2023-05-02T08:44:57;7.07;;;2.55;;
34836;SDS011;21053;50.848;4.652;2023-05-02T08:47:25;12.00;;;2.40;;
34836;SDS011;21053;50.848;4.652;2023-05-02T08:49:54;9.20;;;2.40;;
34836;SDS011;21053;50.848;4.652;2023-05-02T08:52:20;5.50;;;2.22;;
34836;SDS011;21053;50.848;4.652;2023-05-02T08:54:47;13.15;;;2.30;;
34836;SDS011;21053;50.848;4.652;2023-05-02T08:57:15;16.83;;;2.72;;
34836;SDS011;21053;50.848;4.652;2023-05-02T08:59:41;6.07;;;2.40;;
34836;SDS011;21053;50.848;4.652;2023-05-02T09:02:19;6.03;;;2.10;;
34836;SDS011;21053;50.848;4.652;2023-05-02T09:05:08;7.18;;;3.05;;
34836;SDS011;21053;50.848;4.652;2023-05-02T09:07:43;20.45;;;3.50;;
34836;SDS011;21053;50.848;4.652;2023-05-02T09:10:12;11.52;;;3.05;;
34836;SDS011;21053;50.848;4.652;2023-05-02T09:12:39;10.27;;;3.08;;
34836;SDS011;21053;50.848;4.652;2023-05-02T09:15:12;10.50;;;3.15;;
34836;SDS011;21053;50.848;4.652;2023-05-02T09:17:46;8.05;;;2.75;;
34836;SDS011;21053;50.848;4.652;2023-05-02T09:20:15;11.50;;;2.63;;
34836;SDS011;21053;50.848;4.652;2023-05-02T09:22:48;6.18;;;2.38;;
34836;SDS011;21053;50.848;4.652;2023-05-02T09:25:15;9.88;;;2.80;;
34836;SDS011;21053;50.848;4.652;2023-05-02T09:27:54;9.90;;;2.85;;
34836;SDS011;21053;50.848;4.652;2023-05-02T09:30:24;5.50;;;2.47;;
34836;SDS011;21053;50.848;4.652;2023-05-02T09:32:51;8.23;;;2.53;;
34836;SDS011;21053;50.848;4.652;2023-05-02T09:35:19;8.05;;;2.55;;
34836;SDS011;21053;50.848;4.652;2023-05-02T09:37:49;6.28;;;2.60;;
34836;SDS011;21053;50.848;4.652;2023-05-02T09:40:20;8.10;;;2.65;;
34836;SDS011;21053;50.848;4.652;2023-05-02T09:42:47;9.80;;;2.20;;
34836;SDS011;21053;50.848;4.652;2023-05-02T09:45:22;6.10;;;2.20;;
34836;SDS011;21053;50.848;4.652;2023-05-02T09:47:49;8.55;;;2.25;;
34836;SDS011;21053;50.848;4.652;2023-05-02T09:53:04;14.55;;;2.67;;
34836;SDS011;21053;50.848;4.652;2023-05-02T09:55:34;6.90;;;2.40;;
34836;SDS011;21053;50.848;4.652;2023-05-02T09:58:01;9.73;;;2.75;;
34836;SDS011;21053;50.848;4.652;2023-05-02T10:00:43;6.78;;;2.33;;
34836;SDS011;21053;50.848;4.652;2023-05-02T10:03:09;6.65;;;2.10;;
34836;SDS011;21053;50.848;4.652;2023-05-02T10:05:39;6.85;;;2.15;;
34836;SDS011;21053;50.848;4.652;2023-05-02T10:08:05;4.53;;;1.90;;
34836;SDS011;21053;50.848;4.652;2023-05-02T10:10:36;8.02;;;2.00;;
34836;SDS011;21053;50.848;4.652;2023-05-02T10:13:06;6.47;;;1.88;;
34836;SDS011;21053;50.848;4.652;2023-05-02T10:15:33;8.52;;;2.40;;
34836;SDS011;21053;50.848;4.652;2023-05-02T10:18:11;5.72;;;1.80;;
34836;SDS011;21053;50.848;4.652;2023-05-02T10:20:42;6.75;;;1.95;;
34836;SDS011;21053;50.848;4.652;2023-05-02T10:23:13;8.38;;;2.03;;
34836;SDS011;21053;50.848;4.652;2023-05-02T10:25:42;6.65;;;2.15;;
34836;SDS011;21053;50.848;4.652;2023-05-02T10:28:09;8.43;;;2.03;;
34836;SDS011;21053;50.848;4.652;2023-05-02T10:30:36;9.23;;;2.83;;
34836;SDS011;21053;50.848;4.652;2023-05-02T10:33:03;8.85;;;2.35;;
34836;SDS011;21053;50.848;4.652;2023-05-02T10:35:29;6.53;;;1.95;;
34836;SDS011;21053;50.848;4.652;2023-05-02T10:37:57;9.50;;;2.17;;
34836;SDS011;21053;50.848;4.652;2023-05-02T10:40:25;10.65;;;2.45;;
34836;SDS011;21053;50.848;4.652;2023-05-02T10:42:53;9.30;;;2.22;;
34836;SDS011;21053;50.848;4.652;2023-05-02T10:50:45;9.20;;;2.47;;
34836;SDS011;21053;50.848;4.652;2023-05-02T10:53:27;10.68;;;2.88;;
34836;SDS011;21053;50.848;4.652;2023-05-02T10:58:39;11.20;;;2.55;;
34836;SDS011;21053;50.848;4.652;2023-05-02T11:03:52;9.43;;;2.90;;
34836;SDS011;21053;50.848;4.652;2023-05-02T11:06:20;11.65;;;2.90;;
34836;SDS011;21053;50.848;4.652;2023-05-02T11:08:46;5.82;;;2.88;;
34836;SDS011;21053;50.848;4.652;2023-05-02T11:14:04;8.48;;;3.13;;
34836;SDS011;21053;50.848;4.652;2023-05-02T11:24:46;14.60;;;4.18;;
34836;SDS011;21053;50.848;4.652;2023-05-02T11:29:54;7.63;;;2.80;;
34836;SDS011;21053;50.848;4.652;2023-05-02T11:32:21;11.98;;;3.15;;
34836;SDS011;21053;50.848;4.652;2023-05-02T11:34:48;11.77;;;2.72;;
34836;SDS011;21053;50.848;4.652;2023-05-02T11:37:18;10.00;;;2.53;;
34836;SDS011;21053;50.848;4.652;2023-05-02T11:39:45;7.82;;;2.72;;
34836;SDS011;21053;50.848;4.652;2023-05-02T11:42:29;11.48;;;3.00;;
34836;SDS011;21053;50.848;4.652;2023-05-02T11:44:57;8.93;;;2.88;;
34836;SDS011;21053;50.848;4.652;2023-05-02T11:47:25;11.05;;;3.10;;
34836;SDS011;21053;50.848;4.652;2023-05-02T11:49:54;6.88;;;2.55;;
34836;SDS011;21053;50.848;4.652;2023-05-02T11:52:21;8.63;;;2.78;;
34836;SDS011;21053;50.848;4.652;2023-05-02T11:54:52;6.30;;;3.17;;
34836;SDS011;21053;50.848;4.652;2023-05-02T11:57:20;11.65;;;2.80;;
34836;SDS011;21053;50.848;4.652;2023-05-02T11:59:54;7.03;;;2.60;;
34836;SDS011;21053;50.848;4.652;2023-05-02T12:02:36;11.18;;;2.88;;
34836;SDS011;21053;50.848;4.652;2023-05-02T12:05:06;8.80;;;2.95;;
34836;SDS011;21053;50.848;4.652;2023-05-02T12:07:41;19.02;;;3.40;;
34836;SDS011;21053;50.848;4.652;2023-05-02T12:10:12;8.35;;;2.58;;
34836;SDS011;21053;50.848;4.652;2023-05-02T12:12:38;6.82;;;2.45;;
34836;SDS011;21053;50.848;4.652;2023-05-02T12:15:06;10.80;;;2.60;;
34836;SDS011;21053;50.848;4.652;2023-05-02T12:17:38;7.10;;;2.47;;
34836;SDS011;21053;50.848;4.652;2023-05-02T12:20:07;10.98;;;2.58;;
34836;SDS011;21053;50.848;4.652;2023-05-02T12:22:35;11.98;;;2.92;;
34836;SDS011;21053;50.848;4.652;2023-05-02T12:25:01;9.63;;;2.50;;
34836;SDS011;21053;50.848;4.652;2023-05-02T12:27:31;6.53;;;2.55;;
34836;SDS011;21053;50.848;4.652;2023-05-02T12:29:59;10.15;;;3.10;;
34836;SDS011;21053;50.848;4.652;2023-05-02T12:32:27;8.43;;;2.65;;
34836;SDS011;21053;50.848;4.652;2023-05-02T12:34:54;9.32;;;2.75;;
34836;SDS011;21053;50.848;4.652;2023-05-02T12:37:22;11.98;;;2.55;;
34836;SDS011;21053;50.848;4.652;2023-05-02T12:39:48;11.05;;;3.00;;
34836;SDS011;21053;50.848;4.652;2023-05-02T12:42:16;7.97;;;2.85;;
34836;SDS011;21053;50.848;4.652;2023-05-02T12:44:45;13.45;;;2.85;;
34836;SDS011;21053;50.848;4.652;2023-05-02T12:47:12;6.80;;;3.05;;
34836;SDS011;21053;50.848;4.652;2023-05-02T12:53:06;9.45;;;3.03;;
34836;SDS011;21053;50.848;4.652;2023-05-02T12:55:24;10.02;;;2.97;;
34836;SDS011;21053;50.848;4.652;2023-05-02T12:58:04;8.85;;;2.38;;
34836;SDS011;21053;50.848;4.652;2023-05-02T13:00:37;16.08;;;3.13;;
34836;SDS011;21053;50.848;4.652;2023-05-02T13:03:05;24.52;;;3.42;;
34836;SDS011;21053;50.848;4.652;2023-05-02T13:05:33;11.15;;;2.53;;
34836;SDS011;21053;50.848;4.652;2023-05-02T13:08:00;6.10;;;2.67;;
34836;SDS011;21053;50.848;4.652;2023-05-02T13:10:28;11.88;;;2.85;;
34836;SDS011;21053;50.848;4.652;2023-05-02T13:12:55;6.25;;;2.55;;
34836;SDS011;21053;50.848;4.652;2023-05-02T13:15:21;8.60;;;2.88;;
34836;SDS011;21053;50.848;4.652;2023-05-02T13:17:48;7.47;;;2.72;;
34836;SDS011;21053;50.848;4.652;2023-05-02T13:20:15;10.63;;;2.72;;
34836;SDS011;21053;50.848;4.652;2023-05-02T13:22:41;8.70;;;3.20;;
34836;SDS011;21053;50.848;4.652;2023-05-02T13:25:07;11.45;;;2.83;;
34836;SDS011;21053;50.848;4.652;2023-05-02T13:27:34;13.13;;;2.92;;
34836;SDS011;21053;50.848;4.652;2023-05-02T13:29:59;12.82;;;3.15;;
34836;SDS011;21053;50.848;4.652;2023-05-02T13:32:25;12.25;;;3.22;;
34836;SDS011;21053;50.848;4.652;2023-05-02T13:34:52;15.25;;;3.22;;
34836;SDS011;21053;50.848;4.652;2023-05-02T13:37:20;13.52;;;3.08;;
34836;SDS011;21053;50.848;4.652;2023-05-02T13:39:47;10.63;;;3.58;;
34836;SDS011;21053;50.848;4.652;2023-05-02T13:42:13;10.68;;;3.13;;
34836;SDS011;21053;50.848;4.652;2023-05-02T13:44:38;8.27;;;3.30;;
34836;SDS011;21053;50.848;4.652;2023-05-02T13:47:04;12.10;;;4.03;;
34836;SDS011;21053;50.848;4.652;2023-05-02T13:49:31;20.67;;;3.92;;
34836;SDS011;21053;50.848;4.652;2023-05-02T13:57:49;19.90;;;3.63;;
34836;SDS011;21053;50.848;4.652;2023-05-02T14:00:15;16.15;;;3.47;;
34836;SDS011;21053;50.848;4.652;2023-05-02T14:02:42;12.52;;;3.30;;
34836;SDS011;21053;50.848;4.652;2023-05-02T14:07:40;13.48;;;3.53;;
34836;SDS011;21053;50.848;4.652;2023-05-02T14:10:08;11.05;;;2.97;;
34836;SDS011;21053;50.848;4.652;2023-05-02T14:12:36;13.70;;;3.67;;
34836;SDS011;21053;50.848;4.652;2023-05-02T14:15:06;10.38;;;3.70;;
34836;SDS011;21053;50.848;4.652;2023-05-02T14:17:32;13.38;;;3.63;;
34836;SDS011;21053;50.848;4.652;2023-05-02T14:19:58;8.52;;;3.17;;
34836;SDS011;21053;50.848;4.652;2023-05-02T14:22:25;9.65;;;3.45;;
34836;SDS011;21053;50.848;4.652;2023-05-02T14:24:51;18.02;;;3.38;;
34836;SDS011;21053;50.848;4.652;2023-05-02T14:27:19;10.43;;;3.45;;
34836;SDS011;21053;50.848;4.652;2023-05-02T14:29:47;15.25;;;3.55;;
34836;SDS011;21053;50.848;4.652;2023-05-02T14:32:13;7.85;;;3.05;;
34836;SDS011;21053;50.848;4.652;2023-05-02T14:34:40;18.95;;;4.30;;
34836;SDS011;21053;50.848;4.652;2023-05-02T14:37:06;11.48;;;3.65;;
34836;SDS011;21053;50.848;4.652;2023-05-02T14:39:36;12.48;;;3.78;;
34836;SDS011;21053;50.848;4.652;2023-05-02T14:42:03;9.68;;;3.28;;
34836;SDS011;21053;50.848;4.652;2023-05-02T14:44:29;11.30;;;3.15;;
34836;SDS011;21053;50.848;4.652;2023-05-02T14:46:55;20.88;;;7.45;;
34836;SDS011;21053;50.848;4.652;2023-05-02T14:49:22;20.65;;;6.43;;
34836;SDS011;21053;50.848;4.652;2023-05-02T14:51:50;14.98;;;4.53;;
34836;SDS011;21053;50.848;4.652;2023-05-02T14:54:17;16.00;;;4.75;;
34836;SDS011;21053;50.848;4.652;2023-05-02T14:56:46;12.43;;;3.88;;
34836;SDS011;21053;50.848;4.652;2023-05-02T14:59:12;16.65;;;5.45;;
34836;SDS011;21053;50.848;4.652;2023-05-02T15:01:38;17.42;;;6.30;;
34836;SDS011;21053;50.848;4.652;2023-05-02T15:04:06;14.32;;;4.22;;
34836;SDS011;21053;50.848;4.652;2023-05-02T15:06:35;19.55;;;4.63;;
34836;SDS011;21053;50.848;4.652;2023-05-02T15:09:03;15.63;;;3.70;;
34836;SDS011;21053;50.848;4.652;2023-05-02T15:11:33;10.43;;;4.10;;
34836;SDS011;21053;50.848;4.652;2023-05-02T15:14:01;14.48;;;3.95;;
34836;SDS011;21053;50.848;4.652;2023-05-02T15:16:28;14.40;;;3.78;;
34836;SDS011;21053;50.848;4.652;2023-05-02T15:18:55;9.35;;;3.58;;
34836;SDS011;21053;50.848;4.652;2023-05-02T15:21:20;11.48;;;3.75;;
34836;SDS011;21053;50.848;4.652;2023-05-02T15:23:49;9.63;;;3.70;;
34836;SDS011;21053;50.848;4.652;2023-05-02T15:26:15;14.40;;;4.28;;
34836;SDS011;21053;50.848;4.652;2023-05-02T15:28:42;15.38;;;4.43;;
34836;SDS011;21053;50.848;4.652;2023-05-02T15:31:10;17.85;;;3.70;;
34836;SDS011;21053;50.848;4.652;2023-05-02T15:33:37;18.00;;;4.40;;
34836;SDS011;21053;50.848;4.652;2023-05-02T15:36:04;13.50;;;4.20;;
34836;SDS011;21053;50.848;4.652;2023-05-02T15:38:31;11.80;;;4.20;;
34836;SDS011;21053;50.848;4.652;2023-05-02T15:41:01;12.10;;;3.78;;
34836;SDS011;21053;50.848;4.652;2023-05-02T15:43:28;12.60;;;4.22;;
34836;SDS011;21053;50.848;4.652;2023-05-02T15:45:55;10.80;;;3.78;;
34836;SDS011;21053;50.848;4.652;2023-05-02T15:48:28;9.20;;;3.42;;
34836;SDS011;21053;50.848;4.652;2023-05-02T15:50:57;10.00;;;3.58;;
34836;SDS011;21053;50.848;4.652;2023-05-02T15:55:52;10.43;;;4.13;;
34836;SDS011;21053;50.848;4.652;2023-05-02T16:00:49;11.15;;;4.18;;
34836;SDS011;21053;50.848;4.652;2023-05-02T16:05:48;10.90;;;3.88;;
34836;SDS011;21053;50.848;4.652;2023-05-02T16:08:17;18.85;;;4.40;;
34836;SDS011;21053;50.848;4.652;2023-05-02T16:10:43;11.27;;;4.28;;
34836;SDS011;21053;50.848;4.652;2023-05-02T16:13:09;17.20;;;4.63;;
34836;SDS011;21053;50.848;4.652;2023-05-02T16:15:38;12.23;;;4.25;;
34836;SDS011;21053;50.848;4.652;2023-05-02T16:18:05;17.58;;;5.18;;
34836;SDS011;21053;50.848;4.652;2023-05-02T16:20:31;16.75;;;5.97;;
34836;SDS011;21053;50.848;4.652;2023-05-02T16:23:00;14.90;;;4.90;;
34836;SDS011;21053;50.848;4.652;2023-05-02T16:25:30;11.52;;;4.47;;
34836;SDS011;21053;50.848;4.652;2023-05-02T16:27:56;10.52;;;4.95;;
34836;SDS011;21053;50.848;4.652;2023-05-02T16:30:23;14.48;;;4.10;;
34836;SDS011;21053;50.848;4.652;2023-05-02T16:32:50;8.55;;;3.88;;
34836;SDS011;21053;50.848;4.652;2023-05-02T16:35:18;9.68;;;4.35;;
34836;SDS011;21053;50.848;4.652;2023-05-02T16:37:47;17.25;;;3.88;;
34836;SDS011;21053;50.848;4.652;2023-05-02T16:40:13;9.00;;;3.80;;
34836;SDS011;21053;50.848;4.652;2023-05-02T16:42:40;12.25;;;3.85;;
34836;SDS011;21053;50.848;4.652;2023-05-02T16:45:06;11.75;;;4.35;;
34836;SDS011;21053;50.848;4.652;2023-05-02T16:47:32;13.32;;;4.22;;
34836;SDS011;21053;50.848;4.652;2023-05-02T16:49:59;10.52;;;4.38;;
34836;SDS011;21053;50.848;4.652;2023-05-02T16:52:26;9.82;;;3.70;;
34836;SDS011;21053;50.848;4.652;2023-05-02T16:54:53;9.90;;;3.15;;